Airfield :
LOGIN :

Register | Disclaimer

   EN    FR    IT 

 










Legend :    VFR   Marginal VFR   IFR   Intensive IFR   Very Intensive IFR
Visi :
Ceiling :
>= 8 km
>= 3000ft
5 to 8 km
1000 to 3000 ft
1500m to 5 km
500 to 1000 ft
800 to 1500m
200 to 500 ft
< 800m
< 200 ft
Symbols :   Thunderstorms  Fog  Heavy snow  Heavy precipitations  Wind > 20 kt
SIGMETs :     Misc.  Thunderstorms  Icing  Turbulence  Mountain Waves  Volcanic Ashes







- Airport Elevation : 1234 ft
- IATA code : LUX


ELLX - Luxembourg Findel

CURRENT METAR :
  • 220950Z 14008KT CAVOK 20/09 Q1011 NOSIG

EXPIRED METARs :
  • 220920Z 13008KT 100V160 CAVOK 19/09 Q1011 NOSIG
  • 220850Z 14008KT 110V170 CAVOK 18/08 Q1011 NOSIG
  • 220820Z 14007KT CAVOK 16/07 Q1012 NOSIG
  • 220750Z 11004KT 080V140 CAVOK 15/07 Q1012 NOSIG
  • 220720Z 09005KT 070V130 CAVOK 15/06 Q1012 NOSIG

TAF TAF ELLX
Valid from the 22 at 06:00 until the 23 at 12:00 UTC


220500Z 2206/2312 07006KT CAVOK
BECMG 2209/2211 17010KT
TEMPO 2215/2221 17015G25KT 3000 SHRA TSRA BKN012 SCT020CB
BECMG 2221/2223 23010KT 9999 BKN015
TEMPO 2221/2306 2000 RA OVC010
BECMG 2310/2312 SCT030
ATIS : +352 4798 27300
Met : +352 4798 27010 / 27050
No reported NOTAMs for that airfield.



MET'MAP, your aeronautical weather chart ! - Copyright ORBIFLY December 2007 - Disclaimer

ORBIFLY MET'MAP TEAM :

Programming & Development : Alexandra Zaïnal
Concept & Development : Baudouin d'Aumeries
Co-Development & Prog : Marc-Olivier Méhu
Technical & hardware support : Manuel Goepfert

Contact : metmap@orbifly.com




SOURCES & CREDITS :

   NOAA